createdAt,value
2023-05-15T00:02:59.861Z,13.53
2023-05-15T00:09:42.190Z,13.51
2023-05-15T00:16:24.928Z,13.47
2023-05-15T00:23:07.212Z,13.42
2023-05-15T00:29:49.430Z,13.33
2023-05-15T00:36:31.816Z,13.30
2023-05-15T00:43:15.393Z,13.29
2023-05-15T00:49:58.358Z,13.26
2023-05-15T00:56:43.586Z,13.23
2023-05-15T01:03:26.050Z,13.22
2023-05-15T01:10:09.605Z,13.21
2023-05-15T01:16:51.937Z,13.22
2023-05-15T01:24:12.644Z,13.21
2023-05-15T01:30:56.485Z,13.20
2023-05-15T01:37:50.118Z,13.21
2023-05-15T01:44:41.347Z,13.17
2023-05-15T01:51:26.140Z,13.15
2023-05-15T01:58:08.502Z,13.14
2023-05-15T02:04:52.569Z,13.11
2023-05-15T02:11:35.486Z,13.07
2023-05-15T02:18:18.577Z,13.04
2023-05-15T02:25:00.983Z,13.02
2023-05-15T02:32:17.194Z,12.98
2023-05-15T02:39:00.802Z,12.95
2023-05-15T02:45:45.075Z,12.91
2023-05-15T02:52:27.437Z,12.89
2023-05-15T02:59:09.703Z,12.90
2023-05-15T03:05:52.811Z,12.88
2023-05-15T03:12:35.247Z,12.86
2023-05-15T03:19:17.518Z,12.85
2023-05-15T03:25:59.749Z,12.86
2023-05-15T03:32:42.146Z,12.87
2023-05-15T03:39:24.719Z,12.90
2023-05-15T03:46:06.972Z,12.90
2023-05-15T03:52:49.380Z,12.89
2023-05-15T03:59:32.148Z,12.87
2023-05-15T04:06:14.475Z,12.86
2023-05-15T04:12:56.610Z,12.87
2023-05-15T04:19:41.110Z,12.91
2023-05-15T04:26:25.250Z,12.94
2023-05-15T04:33:07.894Z,12.98
2023-05-15T04:39:50.109Z,13.00
2023-05-15T04:46:34.862Z,13.02
2023-05-15T04:53:17.477Z,13.04
2023-05-15T04:59:59.750Z,13.08
2023-05-15T05:06:41.966Z,13.14
2023-05-15T05:13:30.023Z,13.23
2023-05-15T05:20:13.443Z,13.29
2023-05-15T05:26:58.217Z,13.38
2023-05-15T05:33:40.896Z,13.48
2023-05-15T05:40:23.318Z,13.57
2023-05-15T05:47:05.558Z,13.65
2023-05-15T05:53:48.136Z,13.73
2023-05-15T06:00:30.924Z,13.83
2023-05-15T06:07:13.140Z,13.92
2023-05-15T06:13:55.285Z,14.02
2023-05-15T06:20:38.442Z,14.11
2023-05-15T06:27:21.070Z,14.21
2023-05-15T06:34:03.471Z,14.28
2023-05-15T06:40:45.750Z,14.35
2023-05-15T06:47:27.934Z,14.41
2023-05-15T06:54:10.317Z,14.50
2023-05-15T07:00:54.183Z,14.62
2023-05-15T07:07:37.673Z,14.77
2023-05-15T07:14:19.913Z,14.92
2023-05-15T07:21:02.262Z,15.09
2023-05-15T07:27:44.625Z,15.25
2023-05-15T07:34:26.857Z,15.40
2023-05-15T07:41:09.059Z,15.52
2023-05-15T07:47:51.734Z,15.56
2023-05-15T07:54:34.053Z,15.60
2023-05-15T08:01:16.768Z,15.64
2023-05-15T08:08:00.764Z,15.68
2023-05-15T08:14:42.970Z,15.73
2023-05-15T08:21:25.181Z,15.78
2023-05-15T08:28:07.379Z,15.82
2023-05-15T08:34:49.632Z,15.89
2023-05-15T08:41:40.954Z,15.98
2023-05-15T08:48:26.046Z,16.06
2023-05-15T08:55:10.969Z,16.18
2023-05-15T09:01:53.736Z,16.27
2023-05-15T09:08:37.132Z,16.34
2023-05-15T09:15:23.189Z,16.38
2023-05-15T09:22:24.090Z,16.42
2023-05-15T09:29:06.600Z,16.50
2023-05-15T09:35:48.841Z,16.51
2023-05-15T09:42:35.863Z,16.48
2023-05-15T09:49:22.368Z,16.27
2023-05-15T09:56:04.968Z,15.92
2023-05-15T10:02:47.248Z,15.57
2023-05-15T10:09:32.960Z,15.33
2023-05-15T10:16:16.069Z,15.19
2023-05-15T10:22:59.690Z,15.07
2023-05-15T10:29:42.641Z,15.00
2023-05-15T10:36:25.771Z,14.97
2023-05-15T10:43:11.548Z,15.01
2023-05-15T10:49:54.007Z,15.13
2023-05-15T10:56:40.154Z,15.22
2023-05-15T11:03:48.704Z,15.23
2023-05-15T11:10:40.717Z,15.29
2023-05-15T11:17:26.696Z,15.31
2023-05-15T11:24:12.087Z,15.38
2023-05-15T11:31:00.559Z,15.48
2023-05-15T11:37:49.188Z,15.56
2023-05-15T11:44:32.093Z,15.65
2023-05-15T11:51:26.405Z,15.71
2023-05-15T11:58:17.909Z,15.74
2023-05-15T12:05:00.176Z,15.72
2023-05-15T12:11:56.723Z,15.72
2023-05-15T12:18:39.059Z,15.73
2023-05-15T12:25:21.295Z,15.68
2023-05-15T12:32:05.009Z,15.51
2023-05-15T12:38:47.755Z,15.26
2023-05-15T12:45:33.165Z,15.03
2023-05-15T12:52:16.439Z,14.76
2023-05-15T12:58:58.827Z,14.51
2023-05-15T13:05:44.796Z,14.30
2023-05-15T13:12:27.209Z,14.17
2023-05-15T13:19:09.842Z,14.10
2023-05-15T13:25:52.207Z,14.04
2023-05-15T13:32:34.479Z,14.02
2023-05-15T13:39:16.773Z,14.02
2023-05-15T13:45:59.104Z,14.05
2023-05-15T13:52:43.344Z,14.07
2023-05-15T13:59:25.660Z,14.06
2023-05-15T14:06:07.957Z,13.99
2023-05-15T14:12:50.532Z,13.91
2023-05-15T14:19:32.745Z,13.82
2023-05-15T14:26:14.897Z,13.73
2023-05-15T14:32:57.343Z,13.67
2023-05-15T14:39:39.774Z,13.61
2023-05-15T14:46:21.999Z,13.57
2023-05-15T14:53:04.190Z,13.49
2023-05-15T14:59:47.546Z,13.45
2023-05-15T15:06:29.672Z,13.41
2023-05-15T15:13:13.882Z,13.36
2023-05-15T15:19:56.124Z,13.32
2023-05-15T15:26:38.537Z,13.27
2023-05-15T15:33:20.726Z,13.20
2023-05-15T15:40:05.752Z,13.14
2023-05-15T15:46:47.907Z,13.09
2023-05-15T15:53:34.412Z,13.04
2023-05-15T16:00:17.619Z,12.99
2023-05-15T16:06:59.772Z,12.95
2023-05-15T16:13:42.324Z,12.88
2023-05-15T16:20:27.485Z,12.83
2023-05-15T16:27:09.935Z,12.76
2023-05-15T16:33:52.373Z,12.71
2023-05-15T16:40:34.617Z,12.66
2023-05-15T16:47:17.557Z,12.65
2023-05-15T16:54:00.469Z,12.62
2023-05-15T17:00:43.579Z,12.55
2023-05-15T17:07:26.498Z,12.49
2023-05-15T17:14:09.208Z,12.47
2023-05-15T17:20:51.573Z,12.43
2023-05-15T17:27:41.207Z,12.41
2023-05-15T17:34:23.495Z,12.39
2023-05-15T17:41:07.559Z,12.37
2023-05-15T17:47:49.910Z,12.35
2023-05-15T17:54:32.396Z,12.34
2023-05-15T18:01:15.939Z,12.34
2023-05-15T18:07:59.999Z,12.37
2023-05-15T18:14:42.696Z,12.39
2023-05-15T18:21:25.634Z,12.41
2023-05-15T18:28:07.942Z,12.43
2023-05-15T18:34:50.314Z,12.45
2023-05-15T18:41:33.113Z,12.47
2023-05-15T18:48:15.705Z,12.49
2023-05-15T18:54:57.956Z,12.51
2023-05-15T19:01:40.505Z,12.52
2023-05-15T19:08:23.086Z,12.54
2023-05-15T19:15:06.051Z,12.53
2023-05-15T19:21:50.441Z,12.53
2023-05-15T19:28:32.773Z,12.53
2023-05-15T19:35:15.017Z,12.52
2023-05-15T19:41:57.975Z,12.52
2023-05-15T19:48:43.270Z,12.50
2023-05-15T19:55:29.416Z,12.49
2023-05-15T20:02:12.065Z,12.47
2023-05-15T20:08:54.315Z,12.47
2023-05-15T20:15:40.021Z,12.46
2023-05-15T20:22:22.413Z,12.46
2023-05-15T20:29:04.671Z,12.47
2023-05-15T20:35:51.443Z,12.48
2023-05-15T20:42:34.202Z,12.50
2023-05-15T20:49:16.393Z,12.51
2023-05-15T20:55:58.505Z,12.53
2023-05-15T21:02:41.212Z,12.54
2023-05-15T21:09:23.393Z,12.56
2023-05-15T21:16:06.135Z,12.58
2023-05-15T21:22:48.352Z,12.59
2023-05-15T21:29:30.746Z,12.59
2023-05-15T21:36:12.875Z,12.59
2023-05-15T21:42:55.069Z,12.58
2023-05-15T21:49:37.304Z,12.57
2023-05-15T21:56:19.442Z,12.58
2023-05-15T22:03:02.019Z,12.57
2023-05-15T22:09:45.034Z,12.58
2023-05-15T22:16:27.470Z,12.56
2023-05-15T22:23:09.824Z,12.55
2023-05-15T22:29:52.033Z,12.54
2023-05-15T22:36:36.723Z,12.55
2023-05-15T22:43:19.286Z,12.57
2023-05-15T22:50:14.566Z,12.58
2023-05-15T22:56:56.834Z,12.59
2023-05-15T23:03:39.484Z,12.61
2023-05-15T23:10:22.076Z,12.62
2023-05-15T23:17:04.581Z,12.62
2023-05-15T23:23:48.016Z,12.62
2023-05-15T23:30:30.371Z,12.61
2023-05-15T23:37:16.743Z,12.58
2023-05-15T23:43:59.301Z,12.49
2023-05-15T23:50:42.794Z,12.41
2023-05-15T23:57:25.590Z,12.35
